createdAt,value
2024-03-02T00:00:58.382Z,100269.27
2024-03-02T00:03:33.309Z,100270.00
2024-03-02T00:06:07.516Z,100272.73
2024-03-02T00:08:41.450Z,100275.41
2024-03-02T00:11:17.255Z,100269.34
2024-03-02T00:13:51.521Z,100264.23
2024-03-02T00:16:26.279Z,100266.75
2024-03-02T00:19:01.230Z,100271.78
2024-03-02T00:21:35.640Z,100261.27
2024-03-02T00:24:16.602Z,100263.86
2024-03-02T00:26:50.431Z,100255.16
2024-03-02T00:29:25.767Z,100255.09
2024-03-02T00:31:59.989Z,100256.03
2024-03-02T00:34:33.545Z,100253.45
2024-03-02T00:37:08.995Z,100251.77
2024-03-02T00:39:42.552Z,100251.77
2024-03-02T00:42:16.111Z,100255.30
2024-03-02T00:44:49.991Z,100255.09
2024-03-02T00:47:24.302Z,100255.66
2024-03-02T00:49:59.256Z,100268.51
2024-03-02T00:52:34.374Z,100263.34
2024-03-02T00:55:10.184Z,100262.53
2024-03-02T00:57:45.521Z,100265.92
2024-03-02T01:00:21.018Z,100266.90
2024-03-02T01:02:54.449Z,100263.34
2024-03-02T01:05:27.765Z,100266.59
2024-03-02T01:08:02.604Z,100270.71
2024-03-02T01:10:36.076Z,100277.73
2024-03-02T01:13:09.881Z,100281.22
2024-03-02T01:15:43.578Z,100282.09
2024-03-02T01:18:17.381Z,100275.88
2024-03-02T01:20:52.674Z,100280.00
2024-03-02T01:23:26.233Z,100279.86
2024-03-02T01:25:59.824Z,100278.88
2024-03-02T01:28:33.276Z,100279.86
2024-03-02T01:31:07.262Z,100286.00
2024-03-02T01:33:40.966Z,100286.08
2024-03-02T01:36:14.872Z,100282.77
2024-03-02T01:38:48.527Z,100278.39
2024-03-02T01:41:22.043Z,100271.52
2024-03-02T01:43:55.426Z,100274.09
2024-03-02T01:46:29.058Z,100278.25
2024-03-02T01:49:02.482Z,100277.34
2024-03-02T01:51:36.136Z,100281.78
2024-03-02T01:54:09.755Z,100272.42
2024-03-02T01:56:43.627Z,100277.41
2024-03-02T01:59:17.230Z,100270.39
2024-03-02T02:01:50.744Z,100273.64
2024-03-02T02:04:26.085Z,100271.97
2024-03-02T02:06:59.460Z,100268.40
2024-03-02T02:09:32.931Z,100276.89
2024-03-02T02:12:07.989Z,100272.45
2024-03-02T02:14:43.076Z,100277.62
2024-03-02T02:17:16.872Z,100279.26
2024-03-02T02:19:50.641Z,100274.09
2024-03-02T02:22:24.761Z,100281.91
2024-03-02T02:24:58.240Z,100274.09
2024-03-02T02:27:32.011Z,100282.78
2024-03-02T02:30:06.582Z,100278.52
2024-03-02T02:32:40.118Z,100283.77
2024-03-02T02:35:14.028Z,100284.64
2024-03-02T02:37:48.107Z,100297.63
2024-03-02T02:40:22.036Z,100295.12
2024-03-02T02:42:55.732Z,100298.82
2024-03-02T02:45:29.453Z,100304.97
2024-03-02T02:48:04.250Z,100298.92
2024-03-02T02:50:37.879Z,100295.61
2024-03-02T02:53:11.450Z,100290.52
2024-03-02T02:55:45.087Z,100295.51
2024-03-02T02:58:18.657Z,100295.44
2024-03-02T03:00:52.606Z,100295.51
2024-03-02T03:03:26.434Z,100299.66
2024-03-02T03:05:59.954Z,100296.83
2024-03-02T03:08:34.177Z,100294.17
2024-03-02T03:11:08.500Z,100303.63
2024-03-02T03:13:42.356Z,100304.11
2024-03-02T03:16:15.758Z,100304.70
2024-03-02T03:18:50.931Z,100301.28
2024-03-02T03:21:24.776Z,100314.30
2024-03-02T03:23:58.310Z,100309.94
2024-03-02T03:26:31.691Z,100304.59
2024-03-02T03:29:05.154Z,100304.59
2024-03-02T03:31:38.621Z,100297.50
2024-03-02T03:34:13.792Z,100302.73
2024-03-02T03:36:47.410Z,100302.84
2024-03-02T03:39:20.929Z,100302.41
2024-03-02T03:41:54.384Z,100294.91
2024-03-02T03:44:27.923Z,100295.88
2024-03-02T03:47:02.239Z,100288.13
2024-03-02T03:49:35.352Z,100290.72
2024-03-02T03:52:09.443Z,100295.77
2024-03-02T03:54:44.310Z,100288.86
2024-03-02T03:57:17.932Z,100294.03
2024-03-02T03:59:51.191Z,100289.66
2024-03-02T04:02:26.024Z,100292.91
2024-03-02T04:04:59.642Z,100298.14
2024-03-02T04:07:36.789Z,100289.41
2024-03-02T04:10:13.357Z,100291.20
2024-03-02T04:12:47.427Z,100288.69
2024-03-02T04:15:21.005Z,100283.69
2024-03-02T04:17:54.824Z,100297.63
2024-03-02T04:20:28.365Z,100294.91
2024-03-02T04:23:01.720Z,100300.94
2024-03-02T04:25:35.379Z,100300.80
2024-03-02T04:28:09.746Z,100300.73
2024-03-02T04:30:43.277Z,100285.22
2024-03-02T04:33:17.105Z,100292.25
2024-03-02T04:35:51.053Z,100293.30
2024-03-02T04:38:24.833Z,100297.55
2024-03-02T04:40:58.256Z,100305.23
2024-03-02T04:43:33.076Z,100297.16
2024-03-02T04:46:08.337Z,100300.55
2024-03-02T04:48:43.073Z,100293.63
2024-03-02T04:51:17.204Z,100300.48
2024-03-02T04:53:50.768Z,100302.84
2024-03-02T04:56:43.081Z,100296.70
2024-03-02T04:59:16.544Z,100297.67
2024-03-02T05:01:50.218Z,100293.13
2024-03-02T05:04:23.671Z,100300.81
2024-03-02T05:06:58.618Z,100299.20
2024-03-02T05:09:32.413Z,100293.13
2024-03-02T05:12:15.495Z,100302.34
2024-03-02T05:14:49.684Z,100291.45
2024-03-02T05:17:25.472Z,100292.66
2024-03-02T05:19:59.053Z,100296.36
2024-03-02T05:22:35.194Z,100293.12
2024-03-02T05:25:10.973Z,100293.58
2024-03-02T05:27:47.685Z,100296.41
2024-03-02T05:30:21.492Z,100289.53
2024-03-02T05:32:55.134Z,100291.98
2024-03-02T05:35:28.652Z,100288.88
2024-03-02T05:38:02.171Z,100295.16
2024-03-02T05:40:35.656Z,100299.53
2024-03-02T05:43:09.280Z,100298.58
2024-03-02T05:45:42.941Z,100293.09
2024-03-02T05:48:16.490Z,100302.45
2024-03-02T05:50:50.040Z,100300.67
2024-03-02T05:53:23.964Z,100302.31
2024-03-02T05:55:57.884Z,100307.55
2024-03-02T05:58:36.996Z,100313.59
2024-03-02T06:01:10.967Z,100308.28
2024-03-02T06:03:44.441Z,100318.55
2024-03-02T06:06:18.121Z,100314.11
2024-03-02T06:08:52.485Z,100320.23
2024-03-02T06:11:26.107Z,100318.55
2024-03-02T06:13:59.883Z,100320.02
2024-03-02T06:16:33.575Z,100314.84
2024-03-02T06:19:07.028Z,100320.08
2024-03-02T06:21:41.487Z,100315.30
2024-03-02T06:24:17.065Z,100318.42
2024-03-02T06:26:50.755Z,100318.98
2024-03-02T06:29:24.474Z,100316.78
2024-03-02T06:31:57.762Z,100314.48
2024-03-02T06:34:31.338Z,100317.16
2024-03-02T06:37:04.862Z,100315.59
2024-03-02T06:39:38.718Z,100322.23
2024-03-02T06:42:13.089Z,100321.29
2024-03-02T06:44:46.582Z,100317.73
2024-03-02T06:47:21.683Z,100319.65
2024-03-02T06:49:55.429Z,100321.61
2024-03-02T06:52:29.011Z,100317.23
2024-03-02T06:55:02.498Z,100323.34
2024-03-02T06:57:35.995Z,100326.91
2024-03-02T07:00:11.816Z,100322.05
2024-03-02T07:02:45.581Z,100322.50
2024-03-02T07:05:19.213Z,100319.30
2024-03-02T07:07:52.594Z,100327.06
2024-03-02T07:10:26.128Z,100326.33
2024-03-02T07:13:00.152Z,100324.92
2024-03-02T07:15:47.018Z,100327.51
2024-03-02T07:18:21.014Z,100326.77
2024-03-02T07:20:54.627Z,100329.52
2024-03-02T07:23:28.758Z,100323.74
2024-03-02T07:28:38.342Z,100321.07
2024-03-02T07:31:11.992Z,100323.86
2024-03-02T07:33:47.773Z,100323.05
2024-03-02T07:36:23.899Z,100323.86
2024-03-02T07:38:57.859Z,100322.55
2024-03-02T07:41:37.150Z,100319.67
2024-03-02T07:44:11.190Z,100316.41
2024-03-02T07:46:45.199Z,100315.59
2024-03-02T07:49:19.060Z,100313.23
2024-03-02T07:51:52.628Z,100312.63
2024-03-02T07:54:26.074Z,100315.02
2024-03-02T07:57:00.029Z,100315.60
2024-03-02T07:59:34.002Z,100309.34
2024-03-02T08:02:08.371Z,100307.09
2024-03-02T08:04:43.386Z,100315.83
2024-03-02T08:07:17.035Z,100310.09
2024-03-02T08:09:50.560Z,100305.12
2024-03-02T08:12:24.956Z,100309.45
2024-03-02T08:14:58.496Z,100306.96
2024-03-02T08:17:34.181Z,100306.20
2024-03-02T08:20:10.593Z,100309.67
2024-03-02T08:22:44.131Z,100303.46
2024-03-02T08:25:18.130Z,100305.52
2024-03-02T08:27:51.825Z,100309.05
2024-03-02T08:30:25.502Z,100301.54
2024-03-02T08:32:59.016Z,100297.44
2024-03-02T08:35:34.143Z,100302.90
2024-03-02T08:38:08.269Z,100305.81
2024-03-02T08:40:42.919Z,100304.30
2024-03-02T08:43:16.667Z,100306.26
2024-03-02T08:45:50.547Z,100305.45
2024-03-02T08:48:24.322Z,100299.62
2024-03-02T08:50:58.294Z,100303.11
2024-03-02T08:53:31.713Z,100304.48
2024-03-02T08:56:06.695Z,100303.41
2024-03-02T08:58:40.407Z,100302.41
2024-03-02T09:01:14.728Z,100296.20
2024-03-02T09:03:48.686Z,100300.63
2024-03-02T09:06:22.884Z,100302.27
2024-03-02T09:08:56.590Z,100297.13
2024-03-02T09:11:30.372Z,100299.94
2024-03-02T09:14:04.080Z,100303.72
2024-03-02T09:16:37.776Z,100297.11
2024-03-02T09:19:13.115Z,100297.40
2024-03-02T09:21:47.006Z,100291.78
2024-03-02T09:24:20.510Z,100290.52
2024-03-02T09:26:54.399Z,100297.23
2024-03-02T09:29:28.250Z,100293.03
2024-03-02T09:32:01.796Z,100293.99
2024-03-02T09:34:35.309Z,100291.66
2024-03-02T09:37:09.607Z,100298.75
2024-03-02T09:39:44.884Z,100290.38
2024-03-02T09:42:19.401Z,100289.45
2024-03-02T09:44:54.067Z,100286.97
2024-03-02T09:47:27.900Z,100283.20
2024-03-02T09:50:03.108Z,100281.17
2024-03-02T09:52:38.533Z,100276.45
2024-03-02T09:55:15.909Z,100279.95
2024-03-02T09:57:53.627Z,100276.34
2024-03-02T10:00:29.644Z,100276.59
2024-03-02T10:03:03.250Z,100280.31
2024-03-02T10:05:39.094Z,100276.91
2024-03-02T10:08:13.295Z,100279.52
2024-03-02T10:10:47.343Z,100281.58
2024-03-02T10:13:20.850Z,100281.14
2024-03-02T10:15:55.808Z,100283.41
2024-03-02T10:18:32.728Z,100282.54
2024-03-02T10:21:16.821Z,100288.55
2024-03-02T10:23:50.308Z,100278.52
2024-03-02T10:26:24.475Z,100274.81
2024-03-02T10:28:59.650Z,100284.52
2024-03-02T10:31:33.166Z,100283.00
2024-03-02T10:34:07.567Z,100286.79
2024-03-02T10:36:43.418Z,100293.47
2024-03-02T10:39:17.339Z,100287.31
2024-03-02T10:41:52.060Z,100293.52
2024-03-02T10:44:26.454Z,100292.11
2024-03-02T10:47:02.435Z,100300.09
2024-03-02T10:49:36.610Z,100297.50
2024-03-02T10:52:10.845Z,100312.95
2024-03-02T10:54:45.009Z,100304.24
2024-03-02T10:57:26.707Z,100297.84
2024-03-02T11:00:03.726Z,100303.05
2024-03-02T11:02:40.012Z,100298.48
2024-03-02T11:05:15.858Z,100300.03
2024-03-02T11:07:50.063Z,100299.36
2024-03-02T11:10:25.301Z,100298.19
2024-03-02T11:13:03.467Z,100300.02
2024-03-02T11:15:40.346Z,100294.92
2024-03-02T11:18:15.235Z,100293.92
2024-03-02T11:20:51.873Z,100295.70
2024-03-02T11:23:36.406Z,100290.64
2024-03-02T11:26:22.632Z,100299.02
2024-03-02T11:28:57.266Z,100297.13
2024-03-02T11:32:01.220Z,100293.28
2024-03-02T11:34:35.926Z,100291.16
2024-03-02T11:37:11.608Z,100296.08
2024-03-02T11:39:47.189Z,100282.25
2024-03-02T11:42:22.152Z,100274.59
2024-03-02T11:44:57.039Z,100279.70
2024-03-02T11:47:34.908Z,100277.77
2024-03-02T11:50:10.661Z,100269.98
2024-03-02T11:52:45.980Z,100276.23
2024-03-02T11:55:20.808Z,100278.83
2024-03-02T11:57:56.208Z,100278.06
2024-03-02T12:00:29.932Z,100274.80
2024-03-02T12:03:08.608Z,100275.88
2024-03-02T12:05:43.351Z,100279.02
2024-03-02T12:08:16.831Z,100280.72
2024-03-02T12:11:04.701Z,100280.95
2024-03-02T12:13:38.829Z,100280.66
2024-03-02T12:16:14.988Z,100278.94
2024-03-02T12:18:48.791Z,100279.89
2024-03-02T12:21:22.444Z,100272.81
2024-03-02T12:23:59.198Z,100272.62
2024-03-02T12:26:33.948Z,100277.36
2024-03-02T12:29:07.560Z,100278.32
2024-03-02T12:31:41.717Z,100293.17
2024-03-02T12:34:16.794Z,100278.11
2024-03-02T12:36:53.086Z,100279.77
2024-03-02T12:39:28.457Z,100281.78
2024-03-02T12:42:02.076Z,100284.91
2024-03-02T12:44:35.680Z,100282.31
2024-03-02T12:47:09.694Z,100283.39
2024-03-02T12:49:44.227Z,100280.86
2024-03-02T12:52:20.455Z,100280.80
2024-03-02T12:54:56.643Z,100282.58
2024-03-02T12:57:32.207Z,100279.56
2024-03-02T13:00:09.812Z,100278.31
2024-03-02T13:02:44.800Z,100287.02
2024-03-02T13:05:18.105Z,100283.35
2024-03-02T13:07:52.100Z,100291.02
2024-03-02T13:10:26.377Z,100288.27
2024-03-02T13:13:01.695Z,100287.34
2024-03-02T13:15:37.049Z,100288.03
2024-03-02T13:18:15.031Z,100292.08
2024-03-02T13:23:31.999Z,100294.73
2024-03-02T13:26:07.530Z,100295.50
2024-03-02T13:28:41.586Z,100298.69
2024-03-02T13:31:14.899Z,100304.56
2024-03-02T13:33:48.446Z,100295.98
2024-03-02T13:36:23.576Z,100301.42
2024-03-02T13:38:57.027Z,100307.42
2024-03-02T13:41:30.494Z,100300.81
2024-03-02T13:44:03.909Z,100295.69
2024-03-02T13:46:37.160Z,100302.92
2024-03-02T13:49:10.424Z,100307.81
2024-03-02T13:51:44.325Z,100296.97
2024-03-02T13:54:17.599Z,100306.96
2024-03-02T13:56:51.183Z,100300.88
2024-03-02T13:59:24.688Z,100292.98
2024-03-02T14:01:57.795Z,100301.48
2024-03-02T14:04:31.257Z,100305.02
2024-03-02T14:07:05.174Z,100306.73
2024-03-02T14:09:38.845Z,100309.70
2024-03-02T14:12:14.884Z,100305.39
2024-03-02T14:14:48.187Z,100313.33
2024-03-02T14:17:21.696Z,100308.14
2024-03-02T14:19:55.317Z,100311.17
2024-03-02T14:22:28.892Z,100311.55
2024-03-02T14:25:02.320Z,100313.11
2024-03-02T14:27:50.955Z,100306.06
2024-03-02T14:30:14.897Z,100305.05
2024-03-02T14:32:48.254Z,100303.78
2024-03-02T14:35:23.503Z,100317.17
2024-03-02T14:37:58.794Z,100311.72
2024-03-02T14:40:32.120Z,100303.23
2024-03-02T14:43:06.928Z,100313.47
2024-03-02T14:45:40.515Z,100313.79
2024-03-02T14:48:14.221Z,100304.72
2024-03-02T14:50:47.668Z,100304.90
2024-03-02T14:53:21.809Z,100300.67
2024-03-02T14:55:55.372Z,100304.09
2024-03-02T14:58:28.875Z,100310.00
2024-03-02T15:01:02.622Z,100306.44
2024-03-02T15:03:37.350Z,100313.31
2024-03-02T15:06:11.765Z,100312.72
2024-03-02T15:08:47.013Z,100314.58
2024-03-02T15:11:20.440Z,100316.84
2024-03-02T15:13:55.113Z,100305.37
2024-03-02T15:16:29.662Z,100312.98
2024-03-02T15:19:04.057Z,100308.63
2024-03-02T15:21:39.737Z,100308.48
2024-03-02T15:24:13.051Z,100308.48
2024-03-02T15:26:46.897Z,100309.94
2024-03-02T15:29:23.605Z,100312.27
2024-03-02T15:31:56.864Z,100308.73
2024-03-02T15:34:30.261Z,100313.73
2024-03-02T15:37:05.397Z,100316.23
2024-03-02T15:39:39.532Z,100314.63
2024-03-02T15:42:13.875Z,100315.69
2024-03-02T15:44:47.499Z,100320.98
2024-03-02T15:47:21.015Z,100314.46
2024-03-02T15:49:54.613Z,100317.50
2024-03-02T15:52:28.444Z,100318.07
2024-03-02T15:55:03.121Z,100317.58
2024-03-02T15:57:37.727Z,100314.92
2024-03-02T16:00:13.055Z,100315.72
2024-03-02T16:02:46.563Z,100314.73
2024-03-02T16:05:21.607Z,100323.12
2024-03-02T16:07:54.981Z,100307.63
2024-03-02T16:10:28.715Z,100313.36
2024-03-02T16:13:02.093Z,100318.33
2024-03-02T16:15:37.790Z,100321.63
2024-03-02T16:18:11.289Z,100320.67
2024-03-02T16:20:44.752Z,100327.19
2024-03-02T16:23:20.598Z,100331.20
2024-03-02T16:25:54.917Z,100324.98
2024-03-02T16:28:28.732Z,100337.52
2024-03-02T16:31:02.271Z,100324.47
2024-03-02T16:33:36.178Z,100322.69
2024-03-02T16:36:10.887Z,100336.38
2024-03-02T16:38:45.456Z,100318.95
2024-03-02T16:41:20.466Z,100340.30
2024-03-02T16:43:54.759Z,100341.02
2024-03-02T16:46:29.603Z,100335.06
2024-03-02T16:49:03.580Z,100346.17
2024-03-02T16:51:43.799Z,100341.38
2024-03-02T16:54:17.618Z,100337.17
2024-03-02T16:56:51.071Z,100333.72
2024-03-02T16:59:24.652Z,100345.09
2024-03-02T17:04:39.988Z,100332.80
2024-03-02T17:07:14.502Z,100336.22
2024-03-02T17:09:48.289Z,100338.52
2024-03-02T17:12:21.877Z,100331.05
2024-03-02T17:14:55.850Z,100336.92
2024-03-02T17:17:29.629Z,100341.38
2024-03-02T17:20:03.835Z,100347.95
2024-03-02T17:22:37.243Z,100342.60
2024-03-02T17:25:11.812Z,100349.18
2024-03-02T17:27:45.055Z,100348.39
2024-03-02T17:30:21.631Z,100345.02
2024-03-02T17:32:54.956Z,100348.30
2024-03-02T17:35:28.403Z,100345.73
2024-03-02T17:38:03.632Z,100346.60
2024-03-02T17:40:36.949Z,100343.23
2024-03-02T17:43:10.442Z,100349.18
2024-03-02T17:45:44.118Z,100346.44
2024-03-02T17:48:18.371Z,100342.36
2024-03-02T17:50:52.186Z,100342.27
2024-03-02T17:53:26.094Z,100339.42
2024-03-02T17:55:59.987Z,100348.77
2024-03-02T17:58:33.743Z,100344.21
2024-03-02T18:01:07.783Z,100346.70
2024-03-02T18:03:41.265Z,100344.76
2024-03-02T18:06:15.636Z,100347.77
2024-03-02T18:08:50.868Z,100347.34
2024-03-02T18:11:25.892Z,100347.48
2024-03-02T18:13:59.466Z,100337.42
2024-03-02T18:16:32.923Z,100340.28
2024-03-02T18:19:08.798Z,100345.67
2024-03-02T18:21:41.829Z,100344.30
2024-03-02T18:24:15.242Z,100340.38
2024-03-02T18:26:48.466Z,100346.14
2024-03-02T18:29:22.505Z,100354.36
2024-03-02T18:31:57.197Z,100351.31
2024-03-02T18:34:30.649Z,100344.11
2024-03-02T18:37:04.308Z,100357.67
2024-03-02T18:39:37.657Z,100355.41
2024-03-02T18:42:11.109Z,100354.05
2024-03-02T18:44:45.126Z,100357.92
2024-03-02T18:47:19.589Z,100350.81
2024-03-02T18:49:54.866Z,100359.92
2024-03-02T18:52:28.984Z,100356.08
2024-03-02T18:55:04.183Z,100354.07
2024-03-02T18:57:38.206Z,100358.94
2024-03-02T19:00:14.310Z,100362.29
2024-03-02T19:02:49.070Z,100361.29
2024-03-02T19:05:22.830Z,100356.14
2024-03-02T19:07:56.684Z,100367.13
2024-03-02T19:10:30.394Z,100366.94
2024-03-02T19:13:04.123Z,100368.41
2024-03-02T19:15:37.748Z,100375.25
2024-03-02T19:18:12.662Z,100365.66
2024-03-02T19:20:47.319Z,100376.63
2024-03-02T19:23:25.835Z,100363.68
2024-03-02T19:25:58.006Z,100376.31
2024-03-02T19:28:31.933Z,100369.30
2024-03-02T19:31:06.367Z,100374.24
2024-03-02T19:33:40.373Z,100363.88
2024-03-02T19:36:14.951Z,100375.72
2024-03-02T19:38:48.649Z,100367.59
2024-03-02T19:41:23.331Z,100370.07
2024-03-02T19:43:57.314Z,100372.35
2024-03-02T19:46:34.298Z,100372.13
2024-03-02T19:49:07.976Z,100373.50
2024-03-02T19:51:41.927Z,100367.39
2024-03-02T19:54:15.600Z,100380.02
2024-03-02T19:56:48.932Z,100378.94
2024-03-02T19:59:22.303Z,100380.19
2024-03-02T20:01:56.466Z,100381.68
2024-03-02T20:04:29.966Z,100371.18
2024-03-02T20:07:04.494Z,100377.68
2024-03-02T20:09:38.521Z,100371.67
2024-03-02T20:12:12.296Z,100376.48
2024-03-02T20:14:47.768Z,100374.59
2024-03-02T20:17:22.763Z,100382.87
2024-03-02T20:19:56.671Z,100379.34
2024-03-02T20:22:30.221Z,100377.31
2024-03-02T20:25:04.065Z,100377.31
2024-03-02T20:27:37.424Z,100379.78
2024-03-02T20:30:14.096Z,100384.72
2024-03-02T20:32:47.746Z,100379.39
2024-03-02T20:35:21.405Z,100380.84
2024-03-02T20:37:57.466Z,100379.84
2024-03-02T20:40:31.124Z,100388.31
2024-03-02T20:43:05.345Z,100396.59
2024-03-02T20:45:41.757Z,100391.27
2024-03-02T20:48:16.285Z,100389.27
2024-03-02T20:50:49.917Z,100385.59
2024-03-02T20:53:23.661Z,100387.48
2024-03-02T20:55:57.145Z,100384.69
2024-03-02T20:58:31.909Z,100387.25
2024-03-02T21:01:06.671Z,100387.83
2024-03-02T21:03:41.873Z,100381.61
2024-03-02T21:06:15.676Z,100388.40
2024-03-02T21:08:49.226Z,100385.06
2024-03-02T21:11:23.439Z,100384.95
2024-03-02T21:13:57.584Z,100394.31
2024-03-02T21:16:31.194Z,100391.44
2024-03-02T21:19:04.654Z,100391.44
2024-03-02T21:21:39.833Z,100391.34
2024-03-02T21:24:13.252Z,100383.51
2024-03-02T21:26:47.618Z,100391.09
2024-03-02T21:29:21.459Z,100394.44
2024-03-02T21:31:56.922Z,100398.48
2024-03-02T21:34:30.394Z,100401.83
2024-03-02T21:37:04.596Z,100393.80
2024-03-02T21:39:43.214Z,100396.36
2024-03-02T21:42:13.379Z,100396.93
2024-03-02T21:44:46.908Z,100394.36
2024-03-02T21:47:20.895Z,100390.15
2024-03-02T21:49:54.071Z,100397.84
2024-03-02T21:52:27.945Z,100390.02
2024-03-02T21:55:01.987Z,100393.39
2024-03-02T21:57:35.992Z,100393.39
2024-03-02T22:00:10.974Z,100393.05
2024-03-02T22:02:47.448Z,100396.63
2024-03-02T22:05:21.062Z,100397.40
2024-03-02T22:07:56.179Z,100401.41
2024-03-02T22:10:30.783Z,100397.83
2024-03-02T22:13:04.865Z,100398.50
2024-03-02T22:15:38.541Z,100409.42
2024-03-02T22:18:12.035Z,100404.30
2024-03-02T22:20:45.857Z,100404.30
2024-03-02T22:23:19.744Z,100401.73
2024-03-02T22:25:53.510Z,100404.54
2024-03-02T22:28:27.131Z,100402.19
2024-03-02T22:31:00.841Z,100397.40
2024-03-02T22:33:34.817Z,100410.32
2024-03-02T22:36:10.387Z,100409.55
2024-03-02T22:38:43.961Z,100416.47
2024-03-02T22:41:17.551Z,100410.53
2024-03-02T22:43:51.196Z,100412.11
2024-03-02T22:46:28.173Z,100412.11
2024-03-02T22:49:11.037Z,100400.06
2024-03-02T22:51:54.784Z,100399.30
2024-03-02T22:54:32.716Z,100406.98
2024-03-02T22:57:08.180Z,100405.09
2024-03-02T22:59:42.933Z,100406.98
2024-03-02T23:02:21.952Z,100391.16
2024-03-02T23:05:00.208Z,100395.27
2024-03-02T23:07:35.203Z,100401.98
2024-03-02T23:10:10.532Z,100402.75
2024-03-02T23:12:46.646Z,100408.76
2024-03-02T23:15:20.612Z,100413.21
2024-03-02T23:17:55.761Z,100417.56
2024-03-02T23:20:37.213Z,100419.36
2024-03-02T23:23:12.167Z,100415.78
2024-03-02T23:25:46.495Z,100418.14
2024-03-02T23:28:20.241Z,100420.35
2024-03-02T23:30:54.804Z,100430.50
2024-03-02T23:33:28.365Z,100415.69
2024-03-02T23:36:02.068Z,100428.39
2024-03-02T23:38:35.608Z,100431.62
2024-03-02T23:41:12.582Z,100437.42
2024-03-02T23:43:45.485Z,100438.97
2024-03-02T23:46:18.747Z,100430.40
2024-03-02T23:48:52.432Z,100437.63
2024-03-02T23:51:26.241Z,100434.08
2024-03-02T23:54:01.254Z,100435.62
2024-03-02T23:56:34.670Z,100437.17
2024-03-02T23:59:08.972Z,100425.16
